Aérodrome :
LOGIN :

S'inscrire | Disclaimer

   EN    FR    IT 

 










Légende :    VFR   VFR Marginal   IFR   IFR Intensif   IFR Très Intensif
Visi : 
Plafond : 
>= 8 km
>= 3000ft
5 à 8 km
1000 à 3000 ft
1500m à 5 km
500 à 1000 ft
800 à 1500m
200 à 500 ft
< 800m
< 200 ft
Symboles :   Orages  Brouillard  Fortes neiges  Fortes précipitations  Vent > 20 kt
SIGMETs :   Divers  Orages  Givrage  Turbulence  Onde Orograph.  Cendres Volcan.






- Altitude de l'aérodrome : 277 ft
- Code IATA : JER


EGJJ - Jersey

DERNIER METAR :
  • 150120Z AUTO 28009KT 9999 BKN004/// OVC005/// 17/17 Q1015

METARs EXPIRÉS :
  • 150050Z AUTO 27009KT 9999 FEW005/// SCT006/// BKN008/// 17/17 Q1016
  • 150020Z AUTO 27011KT 9999 BKN006/// OVC008/// 17/17 Q1016
  • 142350Z AUTO 28010KT 9999 FEW008/// BKN009/// OVC011/// 17/17 Q1016
  • 142320Z AUTO 28009KT 9999 FEW005/// BKN007/// OVC008/// 17/17 Q1016
  • 142250Z AUTO 28009KT 9999 FEW008/// OVC013/// 17/17 Q1016

TAF TAF EGJJ
Valide du 15 à 00h jusqu'au 15 à 09h UTC


142258Z 1500/1509 28010KT 9999 FEW005 BKN012
TEMPO 1500/1503 6000 BKN004
PROB30
TEMPO 1500/1502 1500 BR BKN000
BECMG 1504/1506 SCT012
ATIS : +44 1534 498 073



MET'MAP, la Météo Aéronautique d'un coup d'oeil ! - Copyright ORBIFLY Décembre 2007 - Disclaimer

ORBIFLY MET'MAP TEAM :

Programmation & Développement : Alexandra Zaïnal
Sur une idée originale de : Baudouin d'Aumeries
Assistance à la programmation : Marc-Olivier Méhu
Soutien technique & logistique : Manuel Goepfert

Contact : metmap@orbifly.com




SOURCES & CREDITS :

   NOAA